sensor_id;sensor_type;location;lat;lon;timestamp;P1;durP1;ratioP1;P2;durP2;ratioP2
56637;SDS011;42507;51.982;20.140;2022-09-09T00:01:11;13.70;;;6.62;;
56637;SDS011;42507;51.982;20.140;2022-09-09T00:04:00;11.57;;;6.87;;
56637;SDS011;42507;51.982;20.140;2022-09-09T00:06:31;11.97;;;7.15;;
56637;SDS011;42507;51.982;20.140;2022-09-09T00:09:08;11.50;;;7.35;;
56637;SDS011;42507;51.982;20.140;2022-09-09T00:11:51;9.23;;;6.17;;
56637;SDS011;42507;51.982;20.140;2022-09-09T00:14:35;12.00;;;6.47;;
56637;SDS011;42507;51.982;20.140;2022-09-09T00:20:29;11.40;;;7.05;;
56637;SDS011;42507;51.982;20.140;2022-09-09T00:28:29;12.85;;;6.85;;
56637;SDS011;42507;51.982;20.140;2022-09-09T00:31:00;14.38;;;7.50;;
56637;SDS011;42507;51.982;20.140;2022-09-09T00:33:34;11.88;;;7.22;;
56637;SDS011;42507;51.982;20.140;2022-09-09T00:36:00;10.80;;;6.97;;
56637;SDS011;42507;51.982;20.140;2022-09-09T00:38:36;13.05;;;7.65;;
56637;SDS011;42507;51.982;20.140;2022-09-09T00:44:03;12.20;;;7.42;;
56637;SDS011;42507;51.982;20.140;2022-09-09T00:52:26;12.43;;;7.42;;
56637;SDS011;42507;51.982;20.140;2022-09-09T00:58:24;13.13;;;7.42;;
56637;SDS011;42507;51.982;20.140;2022-09-09T01:00:51;11.80;;;7.03;;
56637;SDS011;42507;51.982;20.140;2022-09-09T01:03:37;11.70;;;7.65;;
56637;SDS011;42507;51.982;20.140;2022-09-09T01:06:22;12.00;;;7.37;;
56637;SDS011;42507;51.982;20.140;2022-09-09T01:09:04;12.75;;;7.62;;
56637;SDS011;42507;51.982;20.140;2022-09-09T01:14:49;14.45;;;8.03;;
56637;SDS011;42507;51.982;20.140;2022-09-09T01:24:01;16.70;;;8.70;;
56637;SDS011;42507;51.982;20.140;2022-09-09T01:26:54;14.80;;;7.80;;
56637;SDS011;42507;51.982;20.140;2022-09-09T01:29:29;13.38;;;8.65;;
56637;SDS011;42507;51.982;20.140;2022-09-09T01:31:59;19.42;;;8.13;;
56637;SDS011;42507;51.982;20.140;2022-09-09T01:37:07;13.50;;;7.70;;
56637;SDS011;42507;51.982;20.140;2022-09-09T01:39:36;13.58;;;8.65;;
56637;SDS011;42507;51.982;20.140;2022-09-09T01:42:07;13.25;;;8.13;;
56637;SDS011;42507;51.982;20.140;2022-09-09T01:44:35;12.95;;;8.68;;
56637;SDS011;42507;51.982;20.140;2022-09-09T01:47:03;14.55;;;8.60;;
56637;SDS011;42507;51.982;20.140;2022-09-09T01:49:30;11.48;;;7.30;;
56637;SDS011;42507;51.982;20.140;2022-09-09T01:52:00;20.02;;;8.95;;
56637;SDS011;42507;51.982;20.140;2022-09-09T01:54:29;12.73;;;8.65;;
56637;SDS011;42507;51.982;20.140;2022-09-09T01:57:04;15.10;;;8.55;;
56637;SDS011;42507;51.982;20.140;2022-09-09T02:02:44;17.27;;;8.53;;
56637;SDS011;42507;51.982;20.140;2022-09-09T02:05:38;13.93;;;8.33;;
56637;SDS011;42507;51.982;20.140;2022-09-09T02:08:22;12.35;;;7.78;;
56637;SDS011;42507;51.982;20.140;2022-09-09T02:11:19;16.55;;;8.68;;
56637;SDS011;42507;51.982;20.140;2022-09-09T02:16:59;15.55;;;8.83;;
56637;SDS011;42507;51.982;20.140;2022-09-09T02:19:39;16.15;;;8.53;;
56637;SDS011;42507;51.982;20.140;2022-09-09T02:22:10;15.03;;;8.08;;
56637;SDS011;42507;51.982;20.140;2022-09-09T02:24:37;12.30;;;7.62;;
56637;SDS011;42507;51.982;20.140;2022-09-09T02:27:13;12.80;;;8.83;;
56637;SDS011;42507;51.982;20.140;2022-09-09T02:29:42;15.53;;;8.65;;
56637;SDS011;42507;51.982;20.140;2022-09-09T02:32:14;11.93;;;7.60;;
56637;SDS011;42507;51.982;20.140;2022-09-09T02:34:43;17.00;;;8.63;;
56637;SDS011;42507;51.982;20.140;2022-09-09T02:37:19;16.67;;;9.35;;
56637;SDS011;42507;51.982;20.140;2022-09-09T02:39:49;16.42;;;8.90;;
56637;SDS011;42507;51.982;20.140;2022-09-09T02:42:17;12.85;;;8.75;;
56637;SDS011;42507;51.982;20.140;2022-09-09T02:44:44;16.93;;;9.13;;
56637;SDS011;42507;51.982;20.140;2022-09-09T02:49:58;15.88;;;9.30;;
56637;SDS011;42507;51.982;20.140;2022-09-09T02:52:58;11.95;;;7.58;;
56637;SDS011;42507;51.982;20.140;2022-09-09T02:55:38;13.88;;;8.60;;
56637;SDS011;42507;51.982;20.140;2022-09-09T02:58:19;13.70;;;8.55;;
56637;SDS011;42507;51.982;20.140;2022-09-09T03:00:49;16.05;;;8.30;;
56637;SDS011;42507;51.982;20.140;2022-09-09T03:03:17;17.02;;;8.80;;
56637;SDS011;42507;51.982;20.140;2022-09-09T03:05:46;14.40;;;9.33;;
56637;SDS011;42507;51.982;20.140;2022-09-09T03:08:13;14.90;;;9.13;;
56637;SDS011;42507;51.982;20.140;2022-09-09T03:10:40;17.60;;;9.13;;
56637;SDS011;42507;51.982;20.140;2022-09-09T03:13:07;15.98;;;8.90;;
56637;SDS011;42507;51.982;20.140;2022-09-09T03:15:35;16.85;;;9.20;;
56637;SDS011;42507;51.982;20.140;2022-09-09T03:18:01;11.88;;;7.55;;
56637;SDS011;42507;51.982;20.140;2022-09-09T03:20:29;16.05;;;8.95;;
56637;SDS011;42507;51.982;20.140;2022-09-09T03:22:56;13.53;;;9.00;;
56637;SDS011;42507;51.982;20.140;2022-09-09T03:25:26;13.50;;;8.48;;
56637;SDS011;42507;51.982;20.140;2022-09-09T03:27:54;19.85;;;9.53;;
56637;SDS011;42507;51.982;20.140;2022-09-09T03:30:22;13.50;;;9.38;;
56637;SDS011;42507;51.982;20.140;2022-09-09T03:32:53;15.98;;;8.80;;
56637;SDS011;42507;51.982;20.140;2022-09-09T03:35:21;16.80;;;8.85;;
56637;SDS011;42507;51.982;20.140;2022-09-09T03:37:47;14.93;;;8.85;;
56637;SDS011;42507;51.982;20.140;2022-09-09T03:40:14;13.80;;;8.73;;
56637;SDS011;42507;51.982;20.140;2022-09-09T03:42:41;15.18;;;9.23;;
56637;SDS011;42507;51.982;20.140;2022-09-09T03:45:08;12.07;;;8.03;;
56637;SDS011;42507;51.982;20.140;2022-09-09T03:47:37;15.25;;;8.85;;
56637;SDS011;42507;51.982;20.140;2022-09-09T03:50:05;14.28;;;8.53;;
56637;SDS011;42507;51.982;20.140;2022-09-09T03:52:35;11.45;;;8.45;;
56637;SDS011;42507;51.982;20.140;2022-09-09T03:55:05;14.05;;;9.18;;
56637;SDS011;42507;51.982;20.140;2022-09-09T03:57:32;16.17;;;9.38;;
56637;SDS011;42507;51.982;20.140;2022-09-09T04:00:03;13.43;;;8.55;;
56637;SDS011;42507;51.982;20.140;2022-09-09T04:02:33;14.00;;;9.28;;
56637;SDS011;42507;51.982;20.140;2022-09-09T04:04:59;13.75;;;8.98;;
56637;SDS011;42507;51.982;20.140;2022-09-09T04:07:26;15.48;;;9.15;;
56637;SDS011;42507;51.982;20.140;2022-09-09T04:09:55;14.15;;;8.63;;
56637;SDS011;42507;51.982;20.140;2022-09-09T04:12:21;16.52;;;8.93;;
56637;SDS011;42507;51.982;20.140;2022-09-09T04:14:48;15.78;;;9.25;;
56637;SDS011;42507;51.982;20.140;2022-09-09T04:17:14;15.60;;;9.00;;
56637;SDS011;42507;51.982;20.140;2022-09-09T04:19:41;14.73;;;9.33;;
56637;SDS011;42507;51.982;20.140;2022-09-09T04:22:07;13.72;;;8.95;;
56637;SDS011;42507;51.982;20.140;2022-09-09T04:24:33;19.62;;;10.23;;
56637;SDS011;42507;51.982;20.140;2022-09-09T04:27:00;16.93;;;9.05;;
56637;SDS011;42507;51.982;20.140;2022-09-09T04:29:27;17.05;;;9.45;;
56637;SDS011;42507;51.982;20.140;2022-09-09T04:31:53;17.65;;;9.90;;
56637;SDS011;42507;51.982;20.140;2022-09-09T04:34:19;16.45;;;10.18;;
56637;SDS011;42507;51.982;20.140;2022-09-09T04:36:47;13.28;;;7.62;;
56637;SDS011;42507;51.982;20.140;2022-09-09T04:39:13;16.02;;;10.13;;
56637;SDS011;42507;51.982;20.140;2022-09-09T04:41:40;19.55;;;10.32;;
56637;SDS011;42507;51.982;20.140;2022-09-09T04:44:06;19.25;;;10.63;;
56637;SDS011;42507;51.982;20.140;2022-09-09T04:46:32;18.77;;;10.50;;
56637;SDS011;42507;51.982;20.140;2022-09-09T04:49:00;15.80;;;9.30;;
56637;SDS011;42507;51.982;20.140;2022-09-09T04:51:28;16.95;;;9.70;;
56637;SDS011;42507;51.982;20.140;2022-09-09T04:53:55;17.50;;;9.83;;
56637;SDS011;42507;51.982;20.140;2022-09-09T04:56:21;14.28;;;9.03;;
56637;SDS011;42507;51.982;20.140;2022-09-09T04:58:49;17.25;;;10.10;;
56637;SDS011;42507;51.982;20.140;2022-09-09T05:01:16;21.15;;;9.98;;
56637;SDS011;42507;51.982;20.140;2022-09-09T05:03:46;16.60;;;9.38;;
56637;SDS011;42507;51.982;20.140;2022-09-09T05:06:20;16.05;;;9.45;;
56637;SDS011;42507;51.982;20.140;2022-09-09T05:08:45;19.90;;;9.83;;
56637;SDS011;42507;51.982;20.140;2022-09-09T05:11:17;19.65;;;10.53;;
56637;SDS011;42507;51.982;20.140;2022-09-09T05:13:54;20.50;;;8.78;;
56637;SDS011;42507;51.982;20.140;2022-09-09T05:16:22;16.23;;;9.25;;
56637;SDS011;42507;51.982;20.140;2022-09-09T05:18:48;20.92;;;11.03;;
56637;SDS011;42507;51.982;20.140;2022-09-09T05:21:17;25.97;;;10.98;;
56637;SDS011;42507;51.982;20.140;2022-09-09T05:23:45;18.37;;;9.83;;
56637;SDS011;42507;51.982;20.140;2022-09-09T05:26:13;13.90;;;8.58;;
56637;SDS011;42507;51.982;20.140;2022-09-09T05:28:42;25.00;;;12.23;;
56637;SDS011;42507;51.982;20.140;2022-09-09T05:31:10;21.75;;;11.60;;
56637;SDS011;42507;51.982;20.140;2022-09-09T05:33:38;21.65;;;12.75;;
56637;SDS011;42507;51.982;20.140;2022-09-09T05:36:15;18.23;;;8.85;;
56637;SDS011;42507;51.982;20.140;2022-09-09T05:38:44;23.95;;;12.25;;
56637;SDS011;42507;51.982;20.140;2022-09-09T05:41:12;19.25;;;9.95;;
56637;SDS011;42507;51.982;20.140;2022-09-09T05:43:43;25.30;;;12.13;;
56637;SDS011;42507;51.982;20.140;2022-09-09T05:46:12;22.95;;;11.40;;
56637;SDS011;42507;51.982;20.140;2022-09-09T05:48:48;24.65;;;11.68;;
56637;SDS011;42507;51.982;20.140;2022-09-09T05:51:26;23.92;;;11.80;;
56637;SDS011;42507;51.982;20.140;2022-09-09T05:53:53;19.50;;;10.95;;
56637;SDS011;42507;51.982;20.140;2022-09-09T05:56:22;23.55;;;12.40;;
56637;SDS011;42507;51.982;20.140;2022-09-09T05:58:51;24.47;;;11.90;;
56637;SDS011;42507;51.982;20.140;2022-09-09T06:01:20;20.32;;;10.93;;
56637;SDS011;42507;51.982;20.140;2022-09-09T06:03:52;21.52;;;10.95;;
56637;SDS011;42507;51.982;20.140;2022-09-09T06:06:20;21.33;;;10.40;;
56637;SDS011;42507;51.982;20.140;2022-09-09T06:08:53;28.13;;;13.50;;
56637;SDS011;42507;51.982;20.140;2022-09-09T06:11:24;21.15;;;13.45;;
56637;SDS011;42507;51.982;20.140;2022-09-09T06:13:57;22.70;;;12.40;;
56637;SDS011;42507;51.982;20.140;2022-09-09T06:16:25;25.48;;;13.00;;
56637;SDS011;42507;51.982;20.140;2022-09-09T06:18:53;24.95;;;12.98;;
56637;SDS011;42507;51.982;20.140;2022-09-09T06:21:24;21.30;;;12.50;;
56637;SDS011;42507;51.982;20.140;2022-09-09T06:23:52;27.02;;;14.05;;
56637;SDS011;42507;51.982;20.140;2022-09-09T06:26:27;32.45;;;15.65;;
56637;SDS011;42507;51.982;20.140;2022-09-09T06:28:55;28.57;;;14.95;;
56637;SDS011;42507;51.982;20.140;2022-09-09T06:31:24;25.77;;;12.63;;
56637;SDS011;42507;51.982;20.140;2022-09-09T06:33:56;30.17;;;15.23;;
56637;SDS011;42507;51.982;20.140;2022-09-09T06:36:30;28.30;;;12.70;;
56637;SDS011;42507;51.982;20.140;2022-09-09T06:38:59;28.17;;;13.55;;
56637;SDS011;42507;51.982;20.140;2022-09-09T06:41:27;27.98;;;13.28;;
56637;SDS011;42507;51.982;20.140;2022-09-09T06:43:56;27.37;;;15.03;;
56637;SDS011;42507;51.982;20.140;2022-09-09T06:46:29;34.53;;;16.32;;
56637;SDS011;42507;51.982;20.140;2022-09-09T06:48:59;30.77;;;14.38;;
56637;SDS011;42507;51.982;20.140;2022-09-09T06:51:33;22.73;;;11.88;;
56637;SDS011;42507;51.982;20.140;2022-09-09T06:54:02;26.60;;;13.53;;
56637;SDS011;42507;51.982;20.140;2022-09-09T06:56:41;29.23;;;14.40;;
56637;SDS011;42507;51.982;20.140;2022-09-09T06:59:11;31.87;;;13.25;;
56637;SDS011;42507;51.982;20.140;2022-09-09T07:01:39;30.15;;;13.78;;
56637;SDS011;42507;51.982;20.140;2022-09-09T07:04:09;35.58;;;15.05;;
56637;SDS011;42507;51.982;20.140;2022-09-09T07:06:39;32.05;;;15.25;;
56637;SDS011;42507;51.982;20.140;2022-09-09T07:09:10;32.10;;;15.40;;
56637;SDS011;42507;51.982;20.140;2022-09-09T07:11:41;39.67;;;17.65;;
56637;SDS011;42507;51.982;20.140;2022-09-09T07:14:13;34.57;;;16.73;;
56637;SDS011;42507;51.982;20.140;2022-09-09T07:16:41;43.68;;;17.95;;
56637;SDS011;42507;51.982;20.140;2022-09-09T07:19:09;39.98;;;18.45;;
56637;SDS011;42507;51.982;20.140;2022-09-09T07:21:37;36.40;;;17.77;;
56637;SDS011;42507;51.982;20.140;2022-09-09T07:24:07;37.80;;;17.90;;
56637;SDS011;42507;51.982;20.140;2022-09-09T07:26:36;41.98;;;17.27;;
56637;SDS011;42507;51.982;20.140;2022-09-09T07:29:04;37.58;;;16.65;;
56637;SDS011;42507;51.982;20.140;2022-09-09T07:31:32;41.70;;;17.17;;
56637;SDS011;42507;51.982;20.140;2022-09-09T07:34:03;39.85;;;17.20;;
56637;SDS011;42507;51.982;20.140;2022-09-09T07:36:31;33.60;;;16.12;;
56637;SDS011;42507;51.982;20.140;2022-09-09T07:39:01;42.27;;;18.77;;
56637;SDS011;42507;51.982;20.140;2022-09-09T07:41:37;37.93;;;16.80;;
56637;SDS011;42507;51.982;20.140;2022-09-09T07:44:17;41.25;;;18.17;;
56637;SDS011;42507;51.982;20.140;2022-09-09T07:46:48;36.88;;;17.62;;
56637;SDS011;42507;51.982;20.140;2022-09-09T07:49:16;41.45;;;18.25;;
56637;SDS011;42507;51.982;20.140;2022-09-09T07:51:44;47.48;;;19.20;;
56637;SDS011;42507;51.982;20.140;2022-09-09T07:54:14;52.75;;;20.43;;
56637;SDS011;42507;51.982;20.140;2022-09-09T07:56:44;42.43;;;19.20;;
56637;SDS011;42507;51.982;20.140;2022-09-09T07:59:11;40.00;;;17.98;;
56637;SDS011;42507;51.982;20.140;2022-09-09T08:01:40;44.00;;;20.72;;
56637;SDS011;42507;51.982;20.140;2022-09-09T08:04:11;45.90;;;19.25;;
56637;SDS011;42507;51.982;20.140;2022-09-09T08:06:43;47.27;;;19.15;;
56637;SDS011;42507;51.982;20.140;2022-09-09T08:09:20;45.67;;;19.67;;
56637;SDS011;42507;51.982;20.140;2022-09-09T08:11:49;45.10;;;19.27;;
56637;SDS011;42507;51.982;20.140;2022-09-09T08:14:16;51.65;;;20.12;;
56637;SDS011;42507;51.982;20.140;2022-09-09T08:16:43;44.33;;;20.55;;
56637;SDS011;42507;51.982;20.140;2022-09-09T08:19:13;50.17;;;21.00;;
56637;SDS011;42507;51.982;20.140;2022-09-09T08:21:43;41.25;;;20.05;;
56637;SDS011;42507;51.982;20.140;2022-09-09T08:24:11;43.95;;;19.50;;
56637;SDS011;42507;51.982;20.140;2022-09-09T08:26:42;39.13;;;18.35;;
56637;SDS011;42507;51.982;20.140;2022-09-09T08:29:11;45.03;;;20.60;;
56637;SDS011;42507;51.982;20.140;2022-09-09T08:31:43;37.28;;;17.77;;
56637;SDS011;42507;51.982;20.140;2022-09-09T08:34:15;48.42;;;22.15;;
56637;SDS011;42507;51.982;20.140;2022-09-09T08:36:45;44.63;;;20.40;;
56637;SDS011;42507;51.982;20.140;2022-09-09T08:39:17;45.58;;;20.02;;
56637;SDS011;42507;51.982;20.140;2022-09-09T08:44:46;44.23;;;22.07;;
56637;SDS011;42507;51.982;20.140;2022-09-09T08:50:25;42.43;;;19.45;;
56637;SDS011;42507;51.982;20.140;2022-09-09T08:53:02;42.00;;;20.72;;
56637;SDS011;42507;51.982;20.140;2022-09-09T08:55:50;42.25;;;19.62;;
56637;SDS011;42507;51.982;20.140;2022-09-09T09:04:15;40.10;;;19.20;;
56637;SDS011;42507;51.982;20.140;2022-09-09T09:07:21;35.43;;;18.73;;
56637;SDS011;42507;51.982;20.140;2022-09-09T09:10:22;39.30;;;19.52;;
56637;SDS011;42507;51.982;20.140;2022-09-09T09:12:49;35.75;;;20.43;;
56637;SDS011;42507;51.982;20.140;2022-09-09T09:15:18;34.08;;;17.80;;
56637;SDS011;42507;51.982;20.140;2022-09-09T09:17:48;30.25;;;16.00;;
56637;SDS011;42507;51.982;20.140;2022-09-09T09:20:16;40.12;;;17.90;;
56637;SDS011;42507;51.982;20.140;2022-09-09T09:22:51;35.38;;;19.02;;
56637;SDS011;42507;51.982;20.140;2022-09-09T09:25:31;32.63;;;16.93;;
56637;SDS011;42507;51.982;20.140;2022-09-09T09:28:15;20.48;;;11.95;;
56637;SDS011;42507;51.982;20.140;2022-09-09T09:30:57;29.90;;;16.97;;
56637;SDS011;42507;51.982;20.140;2022-09-09T09:33:44;32.85;;;17.07;;
56637;SDS011;42507;51.982;20.140;2022-09-09T09:36:24;36.75;;;18.95;;
56637;SDS011;42507;51.982;20.140;2022-09-09T09:39:21;36.98;;;16.48;;
56637;SDS011;42507;51.982;20.140;2022-09-09T09:41:51;32.17;;;16.57;;
56637;SDS011;42507;51.982;20.140;2022-09-09T09:44:23;27.95;;;15.72;;
56637;SDS011;42507;51.982;20.140;2022-09-09T09:46:53;30.10;;;16.23;;
56637;SDS011;42507;51.982;20.140;2022-09-09T09:49:57;32.38;;;15.32;;
56637;SDS011;42507;51.982;20.140;2022-09-09T09:52:29;25.55;;;13.88;;
56637;SDS011;42507;51.982;20.140;2022-09-09T09:54:58;30.30;;;14.47;;
56637;SDS011;42507;51.982;20.140;2022-09-09T09:57:28;27.50;;;15.98;;
56637;SDS011;42507;51.982;20.140;2022-09-09T10:00:04;23.95;;;14.15;;
56637;SDS011;42507;51.982;20.140;2022-09-09T10:02:42;24.60;;;13.55;;
56637;SDS011;42507;51.982;20.140;2022-09-09T10:05:14;25.90;;;14.43;;
56637;SDS011;42507;51.982;20.140;2022-09-09T10:07:45;26.73;;;14.65;;
56637;SDS011;42507;51.982;20.140;2022-09-09T10:10:15;26.97;;;14.95;;
56637;SDS011;42507;51.982;20.140;2022-09-09T10:15:39;28.50;;;14.47;;
56637;SDS011;42507;51.982;20.140;2022-09-09T10:24:15;21.50;;;13.28;;
56637;SDS011;42507;51.982;20.140;2022-09-09T10:27:05;24.43;;;14.23;;
56637;SDS011;42507;51.982;20.140;2022-09-09T10:29:52;20.27;;;12.35;;
56637;SDS011;42507;51.982;20.140;2022-09-09T10:35:09;21.15;;;12.60;;
56637;SDS011;42507;51.982;20.140;2022-09-09T10:55:43;22.48;;;13.03;;
56637;SDS011;42507;51.982;20.140;2022-09-09T10:58:24;19.12;;;12.03;;
56637;SDS011;42507;51.982;20.140;2022-09-09T11:00:58;21.27;;;13.60;;
56637;SDS011;42507;51.982;20.140;2022-09-09T11:03:28;19.10;;;12.40;;
56637;SDS011;42507;51.982;20.140;2022-09-09T11:05:56;19.75;;;11.30;;
56637;SDS011;42507;51.982;20.140;2022-09-09T11:08:30;20.20;;;12.63;;
56637;SDS011;42507;51.982;20.140;2022-09-09T11:13:53;19.12;;;9.28;;
56637;SDS011;42507;51.982;20.140;2022-09-09T11:19:36;19.87;;;11.43;;
56637;SDS011;42507;51.982;20.140;2022-09-09T11:24:59;18.42;;;11.05;;
56637;SDS011;42507;51.982;20.140;2022-09-09T11:27:59;15.75;;;10.50;;
56637;SDS011;42507;51.982;20.140;2022-09-09T11:36:27;12.05;;;8.13;;
56637;SDS011;42507;51.982;20.140;2022-09-09T11:42:37;13.22;;;8.75;;
56637;SDS011;42507;51.982;20.140;2022-09-09T11:45:10;13.35;;;8.43;;
56637;SDS011;42507;51.982;20.140;2022-09-09T11:47:54;9.68;;;6.95;;
56637;SDS011;42507;51.982;20.140;2022-09-09T11:53:14;13.10;;;7.65;;
56637;SDS011;42507;51.982;20.140;2022-09-09T11:55:42;11.57;;;7.50;;
56637;SDS011;42507;51.982;20.140;2022-09-09T12:00:42;12.43;;;7.65;;
56637;SDS011;42507;51.982;20.140;2022-09-09T12:06:13;11.97;;;8.00;;
56637;SDS011;42507;51.982;20.140;2022-09-09T12:08:58;13.68;;;8.35;;
56637;SDS011;42507;51.982;20.140;2022-09-09T12:11:32;12.20;;;7.78;;
56637;SDS011;42507;51.982;20.140;2022-09-09T12:13:59;11.15;;;7.62;;
56637;SDS011;42507;51.982;20.140;2022-09-09T12:16:27;10.60;;;7.72;;
56637;SDS011;42507;51.982;20.140;2022-09-09T12:19:13;13.80;;;7.47;;
56637;SDS011;42507;51.982;20.140;2022-09-09T12:24:47;10.85;;;7.03;;
56637;SDS011;42507;51.982;20.140;2022-09-09T12:27:45;13.22;;;7.87;;
56637;SDS011;42507;51.982;20.140;2022-09-09T12:30:15;10.35;;;7.47;;
56637;SDS011;42507;51.982;20.140;2022-09-09T12:32:42;13.45;;;7.80;;
56637;SDS011;42507;51.982;20.140;2022-09-09T12:35:17;8.58;;;7.37;;
56637;SDS011;42507;51.982;20.140;2022-09-09T12:37:51;10.18;;;6.75;;
56637;SDS011;42507;51.982;20.140;2022-09-09T12:40:29;7.72;;;6.70;;
56637;SDS011;42507;51.982;20.140;2022-09-09T12:43:00;9.65;;;6.60;;
56637;SDS011;42507;51.982;20.140;2022-09-09T12:45:49;11.88;;;6.95;;
56637;SDS011;42507;51.982;20.140;2022-09-09T12:48:20;10.85;;;6.87;;
56637;SDS011;42507;51.982;20.140;2022-09-09T12:50:50;10.10;;;6.83;;
56637;SDS011;42507;51.982;20.140;2022-09-09T12:53:35;8.90;;;6.45;;
56637;SDS011;42507;51.982;20.140;2022-09-09T12:56:05;9.58;;;7.65;;
56637;SDS011;42507;51.982;20.140;2022-09-09T12:58:35;9.53;;;7.12;;
56637;SDS011;42507;51.982;20.140;2022-09-09T13:01:04;11.28;;;7.03;;
56637;SDS011;42507;51.982;20.140;2022-09-09T13:03:32;9.10;;;6.37;;
56637;SDS011;42507;51.982;20.140;2022-09-09T13:06:10;10.98;;;7.65;;
56637;SDS011;42507;51.982;20.140;2022-09-09T13:08:41;10.25;;;6.67;;
56637;SDS011;42507;51.982;20.140;2022-09-09T13:11:09;10.82;;;6.55;;
56637;SDS011;42507;51.982;20.140;2022-09-09T13:13:41;9.40;;;6.35;;
56637;SDS011;42507;51.982;20.140;2022-09-09T13:19:02;12.10;;;6.85;;
56637;SDS011;42507;51.982;20.140;2022-09-09T13:26:57;8.05;;;6.65;;
56637;SDS011;42507;51.982;20.140;2022-09-09T13:29:29;8.70;;;6.35;;
56637;SDS011;42507;51.982;20.140;2022-09-09T13:32:15;7.78;;;6.22;;
56637;SDS011;42507;51.982;20.140;2022-09-09T13:34:34;9.90;;;6.03;;
56637;SDS011;42507;51.982;20.140;2022-09-09T13:37:19;7.03;;;6.03;;
56637;SDS011;42507;51.982;20.140;2022-09-09T13:39:39;10.63;;;7.45;;
56637;SDS011;42507;51.982;20.140;2022-09-09T13:42:05;12.95;;;8.33;;
56637;SDS011;42507;51.982;20.140;2022-09-09T13:44:35;7.67;;;6.40;;
56637;SDS011;42507;51.982;20.140;2022-09-09T13:47:19;9.78;;;5.90;;
56637;SDS011;42507;51.982;20.140;2022-09-09T13:49:48;7.62;;;6.08;;
56637;SDS011;42507;51.982;20.140;2022-09-09T13:52:16;6.97;;;5.65;;
56637;SDS011;42507;51.982;20.140;2022-09-09T13:54:48;7.90;;;5.28;;
56637;SDS011;42507;51.982;20.140;2022-09-09T13:57:16;9.00;;;5.47;;
56637;SDS011;42507;51.982;20.140;2022-09-09T13:59:51;7.85;;;5.78;;
56637;SDS011;42507;51.982;20.140;2022-09-09T14:02:20;7.28;;;5.65;;
56637;SDS011;42507;51.982;20.140;2022-09-09T14:04:48;6.67;;;5.80;;
56637;SDS011;42507;51.982;20.140;2022-09-09T14:07:16;7.08;;;6.08;;
56637;SDS011;42507;51.982;20.140;2022-09-09T14:09:43;8.28;;;6.78;;
56637;SDS011;42507;51.982;20.140;2022-09-09T14:12:12;8.25;;;6.28;;
56637;SDS011;42507;51.982;20.140;2022-09-09T14:14:41;7.47;;;5.58;;
56637;SDS011;42507;51.982;20.140;2022-09-09T14:17:08;7.37;;;5.53;;
56637;SDS011;42507;51.982;20.140;2022-09-09T14:19:35;6.70;;;5.95;;
56637;SDS011;42507;51.982;20.140;2022-09-09T14:22:02;8.50;;;6.00;;
56637;SDS011;42507;51.982;20.140;2022-09-09T14:24:29;7.28;;;5.60;;
56637;SDS011;42507;51.982;20.140;2022-09-09T14:26:55;6.35;;;4.50;;
56637;SDS011;42507;51.982;20.140;2022-09-09T14:29:21;6.00;;;4.40;;
56637;SDS011;42507;51.982;20.140;2022-09-09T14:31:48;5.37;;;4.35;;
56637;SDS011;42507;51.982;20.140;2022-09-09T14:34:15;8.23;;;5.62;;
56637;SDS011;42507;51.982;20.140;2022-09-09T14:36:41;7.08;;;5.70;;
56637;SDS011;42507;51.982;20.140;2022-09-09T14:39:10;7.90;;;5.58;;
56637;SDS011;42507;51.982;20.140;2022-09-09T14:41:36;7.67;;;5.65;;
56637;SDS011;42507;51.982;20.140;2022-09-09T14:44:03;5.53;;;4.95;;
56637;SDS011;42507;51.982;20.140;2022-09-09T14:46:30;8.00;;;5.60;;
56637;SDS011;42507;51.982;20.140;2022-09-09T14:48:58;7.40;;;6.00;;
56637;SDS011;42507;51.982;20.140;2022-09-09T14:51:25;9.28;;;5.60;;
56637;SDS011;42507;51.982;20.140;2022-09-09T14:53:56;7.10;;;5.45;;
56637;SDS011;42507;51.982;20.140;2022-09-09T14:56:28;6.05;;;5.40;;
56637;SDS011;42507;51.982;20.140;2022-09-09T14:59:00;7.50;;;5.42;;
56637;SDS011;42507;51.982;20.140;2022-09-09T15:01:28;10.63;;;6.28;;
56637;SDS011;42507;51.982;20.140;2022-09-09T15:03:56;7.65;;;5.58;;
56637;SDS011;42507;51.982;20.140;2022-09-09T15:06:26;6.30;;;5.33;;
56637;SDS011;42507;51.982;20.140;2022-09-09T15:08:55;6.90;;;5.55;;
56637;SDS011;42507;51.982;20.140;2022-09-09T15:11:29;7.35;;;6.03;;
56637;SDS011;42507;51.982;20.140;2022-09-09T15:13:59;7.45;;;5.58;;
56637;SDS011;42507;51.982;20.140;2022-09-09T15:16:26;9.58;;;6.45;;
56637;SDS011;42507;51.982;20.140;2022-09-09T15:18:55;9.00;;;6.28;;
56637;SDS011;42507;51.982;20.140;2022-09-09T15:21:24;11.63;;;7.40;;
56637;SDS011;42507;51.982;20.140;2022-09-09T15:23:53;7.45;;;5.90;;
56637;SDS011;42507;51.982;20.140;2022-09-09T15:26:21;10.23;;;5.60;;
56637;SDS011;42507;51.982;20.140;2022-09-09T15:28:49;7.37;;;6.10;;
56637;SDS011;42507;51.982;20.140;2022-09-09T15:31:17;8.35;;;5.75;;
56637;SDS011;42507;51.982;20.140;2022-09-09T15:33:52;7.10;;;5.37;;
56637;SDS011;42507;51.982;20.140;2022-09-09T15:36:26;7.97;;;5.58;;
56637;SDS011;42507;51.982;20.140;2022-09-09T15:38:57;6.30;;;5.12;;
56637;SDS011;42507;51.982;20.140;2022-09-09T15:41:25;7.37;;;5.90;;
56637;SDS011;42507;51.982;20.140;2022-09-09T15:43:52;7.25;;;5.08;;
56637;SDS011;42507;51.982;20.140;2022-09-09T15:46:23;11.30;;;5.37;;
56637;SDS011;42507;51.982;20.140;2022-09-09T15:48:54;7.55;;;5.95;;
56637;SDS011;42507;51.982;20.140;2022-09-09T15:51:23;6.67;;;5.25;;
56637;SDS011;42507;51.982;20.140;2022-09-09T15:53:53;7.03;;;5.55;;
56637;SDS011;42507;51.982;20.140;2022-09-09T15:56:24;14.90;;;8.07;;
56637;SDS011;42507;51.982;20.140;2022-09-09T15:58:53;18.95;;;9.10;;
56637;SDS011;42507;51.982;20.140;2022-09-09T16:01:21;8.88;;;6.40;;
56637;SDS011;42507;51.982;20.140;2022-09-09T16:03:47;10.50;;;7.12;;
56637;SDS011;42507;51.982;20.140;2022-09-09T16:06:16;8.30;;;6.03;;
56637;SDS011;42507;51.982;20.140;2022-09-09T16:08:47;7.95;;;5.83;;
56637;SDS011;42507;51.982;20.140;2022-09-09T16:11:16;9.60;;;6.20;;
56637;SDS011;42507;51.982;20.140;2022-09-09T16:13:47;11.03;;;6.45;;
56637;SDS011;42507;51.982;20.140;2022-09-09T16:16:16;9.33;;;6.60;;
56637;SDS011;42507;51.982;20.140;2022-09-09T16:18:49;9.70;;;7.00;;
56637;SDS011;42507;51.982;20.140;2022-09-09T16:21:20;11.73;;;7.30;;
56637;SDS011;42507;51.982;20.140;2022-09-09T16:23:50;10.23;;;6.22;;
56637;SDS011;42507;51.982;20.140;2022-09-09T16:26:18;17.95;;;8.40;;
56637;SDS011;42507;51.982;20.140;2022-09-09T16:28:45;13.68;;;8.73;;
56637;SDS011;42507;51.982;20.140;2022-09-09T16:31:18;9.80;;;6.72;;
56637;SDS011;42507;51.982;20.140;2022-09-09T16:33:45;9.28;;;6.28;;
56637;SDS011;42507;51.982;20.140;2022-09-09T16:36:14;8.93;;;5.80;;
56637;SDS011;42507;51.982;20.140;2022-09-09T16:38:43;8.88;;;5.42;;
56637;SDS011;42507;51.982;20.140;2022-09-09T16:41:11;8.98;;;6.42;;
56637;SDS011;42507;51.982;20.140;2022-09-09T16:43:38;9.68;;;6.40;;
56637;SDS011;42507;51.982;20.140;2022-09-09T16:46:16;13.58;;;7.40;;